createdAt,value
2023-02-08T00:02:08.261Z,65.17
2023-02-08T00:04:37.666Z,65.19
2023-02-08T00:07:07.119Z,64.72
2023-02-08T00:09:36.493Z,64.82
2023-02-08T00:12:06.014Z,64.73
2023-02-08T00:14:35.630Z,64.83
2023-02-08T00:17:05.305Z,64.23
2023-02-08T00:19:34.617Z,64.21
2023-02-08T00:22:04.616Z,64.46
2023-02-08T00:24:34.498Z,64.69
2023-02-08T00:27:04.563Z,64.63
2023-02-08T00:29:33.951Z,64.93
2023-02-08T00:32:03.978Z,62.65
2023-02-08T00:34:35.624Z,63.28
2023-02-08T00:37:05.976Z,63.81
2023-02-08T00:39:35.449Z,64.31
2023-02-08T00:42:05.344Z,64.25
2023-02-08T00:44:35.251Z,64.98
2023-02-08T00:47:05.093Z,64.59
2023-02-08T00:49:34.011Z,63.63
2023-02-08T00:52:03.925Z,62.90
2023-02-08T00:54:35.595Z,64.27
2023-02-08T00:57:05.432Z,64.96
2023-02-08T00:59:35.401Z,65.04
2023-02-08T01:02:05.332Z,65.13
2023-02-08T01:04:35.228Z,65.68
2023-02-08T01:07:05.754Z,65.54
2023-02-08T01:09:35.556Z,65.64
2023-02-08T01:12:06.173Z,66.32
2023-02-08T01:14:37.563Z,67.00
2023-02-08T01:17:10.621Z,67.42
2023-02-08T01:19:42.430Z,67.48
2023-02-08T01:22:13.999Z,67.52
2023-02-08T01:24:43.945Z,68.53
2023-02-08T01:27:13.613Z,68.24
2023-02-08T01:29:43.126Z,68.21
2023-02-08T01:32:12.073Z,68.14
2023-02-08T01:34:44.040Z,67.56
2023-02-08T01:37:13.948Z,67.27
2023-02-08T01:39:43.527Z,67.28
2023-02-08T01:42:16.420Z,67.48
2023-02-08T01:45:05.808Z,67.61
2023-02-08T01:47:35.710Z,67.48
2023-02-08T01:50:04.575Z,68.16
2023-02-08T01:52:34.563Z,68.67
2023-02-08T01:55:10.161Z,68.62
2023-02-08T01:57:42.100Z,68.39
2023-02-08T02:00:11.387Z,67.67
2023-02-08T02:02:46.444Z,66.98
2023-02-08T02:05:19.359Z,67.38
2023-02-08T02:07:50.612Z,67.32
2023-02-08T02:13:25.461Z,68.08
2023-02-08T02:15:56.835Z,67.37
2023-02-08T02:18:28.266Z,67.08
2023-02-08T02:21:16.222Z,67.81
2023-02-08T02:24:04.343Z,67.80
2023-02-08T02:26:36.047Z,68.37
2023-02-08T02:29:23.994Z,68.14
2023-02-08T02:32:10.853Z,68.81
2023-02-08T02:35:02.686Z,68.54
2023-02-08T02:38:11.307Z,68.92
2023-02-08T02:40:45.776Z,68.71
2023-02-08T02:43:46.667Z,67.19
2023-02-08T02:46:29.858Z,67.41
2023-02-08T02:48:59.368Z,67.24
2023-02-08T02:51:28.641Z,67.53
2023-02-08T02:54:07.810Z,68.18
2023-02-08T02:56:40.284Z,68.41
2023-02-08T02:59:10.798Z,68.38
2023-02-08T03:01:40.547Z,68.32
2023-02-08T03:04:28.706Z,68.72
2023-02-08T03:07:17.371Z,68.88
2023-02-08T03:09:52.310Z,69.22
2023-02-08T03:12:21.440Z,68.86
2023-02-08T03:14:56.633Z,68.73
2023-02-08T03:17:33.791Z,68.78
2023-02-08T03:20:06.075Z,68.58
2023-02-08T03:22:41.307Z,68.42
2023-02-08T03:25:30.326Z,68.31
2023-02-08T03:28:13.861Z,68.42
2023-02-08T03:30:46.386Z,68.32
2023-02-08T03:33:25.536Z,68.64
2023-02-08T03:36:00.180Z,67.62
2023-02-08T03:38:37.509Z,67.98
2023-02-08T03:41:08.398Z,68.92
2023-02-08T03:43:41.439Z,68.72
2023-02-08T03:46:26.204Z,68.59
2023-02-08T03:49:02.861Z,68.23
2023-02-08T03:51:35.399Z,66.81
2023-02-08T03:54:07.206Z,66.77
2023-02-08T03:56:42.431Z,67.35
2023-02-08T03:59:17.267Z,66.96
2023-02-08T04:01:49.355Z,67.52
2023-02-08T04:04:19.375Z,67.70
2023-02-08T04:06:48.525Z,68.14
2023-02-08T04:09:17.781Z,68.11
2023-02-08T04:11:46.917Z,67.91
2023-02-08T04:14:16.213Z,68.12
2023-02-08T04:16:45.520Z,68.11
2023-02-08T04:19:14.935Z,68.21
2023-02-08T04:21:44.019Z,67.86
2023-02-08T04:24:13.998Z,67.37
2023-02-08T04:26:43.677Z,68.26
2023-02-08T04:29:13.237Z,68.50
2023-02-08T04:31:43.112Z,68.69
2023-02-08T04:34:12.620Z,68.92
2023-02-08T04:36:41.893Z,68.51
2023-02-08T04:39:11.327Z,69.02
2023-02-08T04:41:40.668Z,68.42
2023-02-08T04:44:10.373Z,68.58
2023-02-08T04:46:40.025Z,69.04
2023-02-08T04:49:09.613Z,68.51
2023-02-08T04:51:39.059Z,70.16
2023-02-08T04:54:08.590Z,69.69
2023-02-08T04:56:38.172Z,69.02
2023-02-08T04:59:07.712Z,68.71
2023-02-08T05:01:37.416Z,68.73
2023-02-08T05:04:06.508Z,68.35
2023-02-08T05:06:35.934Z,68.82
2023-02-08T05:09:07.902Z,68.06
2023-02-08T05:11:37.784Z,68.10
2023-02-08T05:14:06.310Z,68.25
2023-02-08T05:16:37.329Z,67.81
2023-02-08T05:19:06.407Z,68.04
2023-02-08T05:21:36.125Z,67.73
2023-02-08T05:24:04.602Z,67.46
2023-02-08T05:26:35.335Z,67.05
2023-02-08T05:29:06.782Z,67.35
2023-02-08T05:31:36.156Z,67.63
2023-02-08T05:34:04.721Z,68.60
2023-02-08T05:36:33.825Z,68.46
2023-02-08T05:39:03.409Z,67.86
2023-02-08T05:41:33.093Z,68.09
2023-02-08T05:44:02.682Z,68.67
2023-02-08T05:46:32.765Z,67.96
2023-02-08T05:49:02.683Z,68.07
2023-02-08T05:51:32.160Z,67.94
2023-02-08T05:54:01.727Z,68.02
2023-02-08T05:56:32.789Z,68.28
2023-02-08T05:59:02.948Z,68.37
2023-02-08T06:01:32.171Z,68.49
2023-02-08T06:04:01.677Z,68.01
2023-02-08T06:06:30.878Z,67.54
2023-02-08T06:09:00.138Z,67.24
2023-02-08T06:11:29.475Z,68.33
2023-02-08T06:13:58.911Z,68.17
2023-02-08T06:16:27.955Z,67.83
2023-02-08T06:18:56.795Z,67.86
2023-02-08T06:21:26.197Z,68.48
2023-02-08T06:23:56.059Z,68.81
2023-02-08T06:26:25.229Z,68.58
2023-02-08T06:28:54.287Z,68.70
2023-02-08T06:31:23.558Z,68.49
2023-02-08T06:33:52.726Z,69.30
2023-02-08T06:36:22.233Z,69.01
2023-02-08T06:38:51.890Z,69.22
2023-02-08T06:41:20.612Z,69.52
2023-02-08T06:43:49.788Z,69.09
2023-02-08T06:46:19.424Z,68.91
2023-02-08T06:48:49.077Z,68.34
2023-02-08T06:51:18.700Z,67.79
2023-02-08T06:53:48.304Z,67.86
2023-02-08T06:56:17.886Z,68.38
2023-02-08T06:58:47.391Z,67.06
2023-02-08T07:01:17.019Z,67.21
2023-02-08T07:03:48.580Z,67.28
2023-02-08T07:06:19.349Z,67.30
2023-02-08T07:08:48.911Z,67.54
2023-02-08T07:11:20.341Z,67.08
2023-02-08T07:13:50.026Z,67.13
2023-02-08T07:16:19.908Z,66.59
2023-02-08T07:18:49.880Z,66.83
2023-02-08T07:21:19.445Z,66.64
2023-02-08T07:23:48.988Z,67.03
2023-02-08T07:26:18.286Z,66.40
2023-02-08T07:28:47.520Z,66.24
2023-02-08T07:31:17.275Z,65.69
2023-02-08T07:33:47.735Z,65.82
2023-02-08T07:36:17.048Z,65.72
2023-02-08T07:38:46.057Z,65.83
2023-02-08T07:41:15.495Z,65.22
2023-02-08T07:43:44.706Z,64.88
2023-02-08T07:46:15.445Z,64.37
2023-02-08T07:48:44.708Z,63.63
2023-02-08T07:51:14.227Z,63.61
2023-02-08T07:53:43.762Z,63.76
2023-02-08T07:56:12.214Z,62.79
2023-02-08T07:58:42.531Z,62.41
2023-02-08T08:01:21.967Z,62.90
2023-02-08T08:03:52.969Z,61.21
2023-02-08T08:06:23.452Z,61.77
2023-02-08T08:08:51.902Z,61.36
2023-02-08T08:11:21.140Z,61.77
2023-02-08T08:13:51.284Z,61.50
2023-02-08T08:16:21.006Z,61.74
2023-02-08T08:18:51.192Z,61.41
2023-02-08T08:21:20.399Z,60.55
2023-02-08T08:23:49.881Z,60.09
2023-02-08T08:26:20.467Z,59.71
2023-02-08T08:28:50.154Z,60.17
2023-02-08T08:31:21.227Z,59.92
2023-02-08T08:33:51.114Z,58.37
2023-02-08T08:36:20.232Z,58.06
2023-02-08T08:38:49.583Z,57.77
2023-02-08T08:41:19.111Z,57.37
2023-02-08T08:43:49.096Z,56.85
2023-02-08T08:46:18.662Z,56.74
2023-02-08T08:48:47.748Z,55.40
2023-02-08T08:51:16.899Z,56.51
2023-02-08T08:53:46.118Z,56.19
2023-02-08T08:56:15.437Z,55.50
2023-02-08T08:58:45.001Z,54.93
2023-02-08T09:01:14.534Z,54.52
2023-02-08T09:03:44.272Z,53.72
2023-02-08T09:06:13.551Z,53.72
2023-02-08T09:08:42.515Z,53.81
2023-02-08T09:11:13.435Z,53.24
2023-02-08T09:13:43.435Z,53.03
2023-02-08T09:16:17.322Z,53.20
2023-02-08T09:18:46.543Z,51.61
2023-02-08T09:21:17.343Z,50.36
2023-02-08T09:23:49.657Z,49.74
2023-02-08T09:26:19.958Z,49.41
2023-02-08T09:28:49.425Z,49.91
2023-02-08T09:31:26.500Z,48.63
2023-02-08T09:33:56.657Z,48.85
2023-02-08T09:36:27.263Z,47.71
2023-02-08T09:39:02.120Z,48.78
2023-02-08T09:41:50.534Z,48.56
2023-02-08T09:44:38.862Z,47.55
2023-02-08T09:47:08.484Z,47.97
2023-02-08T09:49:41.051Z,47.04
2023-02-08T09:52:19.014Z,46.24
2023-02-08T09:54:51.622Z,44.76
2023-02-08T09:57:27.012Z,46.11
2023-02-08T10:00:02.280Z,44.48
2023-02-08T10:02:35.148Z,43.85
2023-02-08T10:05:07.380Z,43.89
2023-02-08T10:07:37.679Z,43.36
2023-02-08T10:10:13.005Z,43.64
2023-02-08T10:13:14.342Z,43.61
2023-02-08T10:15:54.065Z,43.21
2023-02-08T10:18:26.155Z,43.00
2023-02-08T10:21:14.472Z,41.88
2023-02-08T10:23:46.551Z,41.17
2023-02-08T10:26:22.312Z,42.45
2023-02-08T10:29:10.503Z,42.74
2023-02-08T10:32:00.215Z,42.16
2023-02-08T10:34:45.078Z,40.74
2023-02-08T10:37:21.860Z,40.23
2023-02-08T10:39:52.052Z,39.82
2023-02-08T10:42:24.732Z,40.92
2023-02-08T10:45:24.187Z,39.42
2023-02-08T10:47:55.926Z,39.35
2023-02-08T10:50:31.103Z,40.03
2023-02-08T10:53:00.414Z,38.89
2023-02-08T10:55:30.914Z,37.60
2023-02-08T10:58:01.761Z,38.83
2023-02-08T11:00:39.922Z,39.27
2023-02-08T11:03:16.944Z,39.00
2023-02-08T11:05:46.146Z,38.15
2023-02-08T11:08:19.922Z,37.24
2023-02-08T11:11:00.532Z,37.38
2023-02-08T11:13:51.815Z,37.37
2023-02-08T11:16:29.003Z,36.49
2023-02-08T11:19:02.343Z,36.91
2023-02-08T11:21:41.357Z,35.31
2023-02-08T11:24:16.761Z,35.19
2023-02-08T11:26:49.500Z,35.26
2023-02-08T11:29:20.060Z,35.29
2023-02-08T11:32:00.649Z,36.05
2023-02-08T11:34:38.993Z,35.22
2023-02-08T11:37:29.404Z,35.80
2023-02-08T11:39:59.695Z,35.80
2023-02-08T11:42:30.588Z,35.84
2023-02-08T11:45:00.542Z,35.51
2023-02-08T11:47:31.769Z,36.20
2023-02-08T11:50:03.274Z,35.64
2023-02-08T11:52:35.836Z,35.82
2023-02-08T11:55:24.549Z,35.16
2023-02-08T11:57:57.014Z,35.25
2023-02-08T12:00:28.151Z,35.44
2023-02-08T12:03:26.623Z,35.34
2023-02-08T12:06:05.658Z,35.34
2023-02-08T12:08:37.356Z,35.57
2023-02-08T12:11:16.786Z,35.88
2023-02-08T12:13:54.044Z,35.69
2023-02-08T12:16:34.851Z,35.62
2023-02-08T12:19:17.717Z,36.03
2023-02-08T12:21:48.456Z,35.96
2023-02-08T12:24:41.480Z,36.97
2023-02-08T12:27:28.094Z,35.68
2023-02-08T12:30:12.483Z,35.71
2023-02-08T12:32:47.552Z,36.20
2023-02-08T12:35:43.546Z,36.17
2023-02-08T12:38:55.475Z,35.10
2023-02-08T12:41:40.819Z,35.80
2023-02-08T12:44:13.036Z,35.58
2023-02-08T12:46:57.441Z,35.80
2023-02-08T12:49:48.660Z,35.99
2023-02-08T12:52:38.493Z,35.70
2023-02-08T12:55:19.265Z,35.31
2023-02-08T12:57:53.281Z,35.24
2023-02-08T13:00:26.061Z,35.85
2023-02-08T13:03:15.739Z,36.05
2023-02-08T13:06:01.811Z,34.85
2023-02-08T13:08:32.569Z,34.19
2023-02-08T13:11:18.911Z,34.61
2023-02-08T13:13:56.697Z,35.45
2023-02-08T13:16:31.842Z,35.54
2023-02-08T13:19:22.889Z,35.24
2023-02-08T13:21:52.825Z,35.45
2023-02-08T13:24:35.312Z,35.35
2023-02-08T13:27:07.868Z,34.09
2023-02-08T13:29:38.408Z,34.43
2023-02-08T13:32:15.358Z,34.16
2023-02-08T13:34:51.298Z,34.46
2023-02-08T13:37:26.056Z,33.72
2023-02-08T13:40:21.703Z,32.89
2023-02-08T13:42:59.318Z,33.05
2023-02-08T13:45:28.545Z,32.86
2023-02-08T13:48:00.159Z,33.51
2023-02-08T13:50:35.379Z,33.39
2023-02-08T13:53:05.865Z,34.01
2023-02-08T13:55:36.340Z,33.73
2023-02-08T13:58:14.547Z,33.86
2023-02-08T14:00:55.353Z,34.70
2023-02-08T14:03:30.269Z,35.01
2023-02-08T14:06:02.192Z,34.64
2023-02-08T14:08:35.455Z,34.91
2023-02-08T14:11:34.276Z,35.01
2023-02-08T14:14:21.846Z,35.15
2023-02-08T14:17:06.400Z,35.76
2023-02-08T14:19:37.215Z,35.76
2023-02-08T14:22:12.654Z,35.24
2023-02-08T14:24:48.484Z,35.47
2023-02-08T14:27:20.317Z,35.81
2023-02-08T14:30:03.392Z,36.44
2023-02-08T14:32:34.720Z,36.65
2023-02-08T14:35:09.373Z,36.84
2023-02-08T14:37:39.405Z,37.47
2023-02-08T14:40:18.632Z,37.52
2023-02-08T14:42:53.887Z,37.82
2023-02-08T14:45:29.376Z,38.02
2023-02-08T14:48:17.449Z,38.37
2023-02-08T14:51:05.514Z,38.42
2023-02-08T14:53:40.517Z,38.77
2023-02-08T14:56:26.969Z,38.94
2023-02-08T14:58:57.979Z,39.44
2023-02-08T15:01:29.976Z,40.60
2023-02-08T15:04:02.390Z,40.55
2023-02-08T15:06:39.526Z,41.24
2023-02-08T15:09:18.031Z,41.41
2023-02-08T15:12:12.195Z,41.76
2023-02-08T15:14:42.460Z,42.21
2023-02-08T15:17:23.485Z,43.06
2023-02-08T15:19:53.256Z,43.53
2023-02-08T15:22:25.252Z,44.36
2023-02-08T15:24:56.074Z,44.52
2023-02-08T15:27:27.368Z,44.63
2023-02-08T15:29:56.773Z,44.71
2023-02-08T15:32:26.682Z,44.79
2023-02-08T15:34:55.879Z,45.31
2023-02-08T15:37:25.523Z,45.61
2023-02-08T15:39:55.838Z,44.99
2023-02-08T15:42:26.824Z,45.38
2023-02-08T15:44:56.559Z,45.72
2023-02-08T15:47:30.585Z,45.82
2023-02-08T15:50:00.718Z,47.12
2023-02-08T15:52:31.936Z,47.35
2023-02-08T15:55:01.526Z,47.41
2023-02-08T15:57:33.732Z,47.26
2023-02-08T16:00:06.820Z,47.41
2023-02-08T16:02:37.159Z,47.54
2023-02-08T16:05:28.995Z,47.53
2023-02-08T16:07:58.486Z,47.71
2023-02-08T16:10:34.199Z,48.68
2023-02-08T16:13:08.508Z,48.47
2023-02-08T16:15:45.618Z,48.91
2023-02-08T16:18:47.469Z,48.77
2023-02-08T16:21:20.226Z,48.95
2023-02-08T16:23:51.279Z,49.14
2023-02-08T16:26:20.400Z,49.62
2023-02-08T16:29:17.796Z,51.25
2023-02-08T16:31:48.831Z,50.80
2023-02-08T16:34:23.714Z,52.11
2023-02-08T16:36:53.286Z,52.15
2023-02-08T16:39:24.131Z,52.23
2023-02-08T16:42:09.596Z,52.81
2023-02-08T16:45:07.337Z,54.26
2023-02-08T16:47:38.058Z,53.87
2023-02-08T16:50:09.967Z,53.69
2023-02-08T16:52:39.513Z,53.71
2023-02-08T16:55:16.271Z,53.69
2023-02-08T16:57:47.522Z,54.53
2023-02-08T17:00:17.893Z,55.10
2023-02-08T17:02:47.803Z,55.09
2023-02-08T17:05:17.631Z,55.22
2023-02-08T17:07:49.209Z,54.73
2023-02-08T17:10:22.872Z,54.59
2023-02-08T17:12:54.371Z,54.93
2023-02-08T17:15:29.994Z,55.09
2023-02-08T17:17:59.169Z,55.69
2023-02-08T17:20:29.447Z,55.15
2023-02-08T17:22:59.429Z,56.09
2023-02-08T17:25:29.501Z,55.72
2023-02-08T17:28:03.558Z,56.53
2023-02-08T17:30:34.125Z,56.15
2023-02-08T17:33:07.897Z,55.73
2023-02-08T17:35:38.679Z,56.20
2023-02-08T17:38:08.358Z,56.18
2023-02-08T17:40:37.692Z,56.24
2023-02-08T17:43:07.298Z,56.29
2023-02-08T17:45:37.965Z,56.60
2023-02-08T17:48:08.360Z,56.40
2023-02-08T17:50:41.247Z,56.89
2023-02-08T17:53:12.584Z,56.80
2023-02-08T17:55:45.763Z,56.74
2023-02-08T17:58:15.694Z,57.65
2023-02-08T18:00:44.305Z,58.22
2023-02-08T18:03:13.956Z,58.54
2023-02-08T18:05:43.546Z,58.45
2023-02-08T18:08:13.223Z,59.16
2023-02-08T18:10:43.065Z,58.94
2023-02-08T18:13:12.711Z,59.65
2023-02-08T18:15:45.270Z,59.12
2023-02-08T18:18:16.020Z,58.92
2023-02-08T18:20:46.741Z,59.09
2023-02-08T18:23:15.208Z,59.03
2023-02-08T18:25:44.925Z,58.89
2023-02-08T18:28:16.984Z,59.61
2023-02-08T18:30:47.041Z,59.36
2023-02-08T18:33:16.875Z,59.51
2023-02-08T18:35:49.918Z,58.78
2023-02-08T18:38:19.058Z,59.27
2023-02-08T18:40:48.638Z,59.22
2023-02-08T18:43:17.912Z,59.52
2023-02-08T18:46:06.910Z,60.33
2023-02-08T18:48:37.123Z,60.08
2023-02-08T18:51:07.363Z,60.50
2023-02-08T18:53:38.393Z,60.55
2023-02-08T18:56:10.100Z,60.41
2023-02-08T18:58:39.910Z,60.60
2023-02-08T19:01:13.572Z,60.68
2023-02-08T19:03:43.576Z,59.73
2023-02-08T19:06:14.297Z,60.29
2023-02-08T19:08:44.405Z,60.31
2023-02-08T19:11:19.027Z,60.22
2023-02-08T19:13:48.358Z,61.51
2023-02-08T19:16:18.258Z,61.27
2023-02-08T19:18:48.570Z,61.49
2023-02-08T19:21:18.431Z,61.55
2023-02-08T19:23:49.462Z,61.75
2023-02-08T19:26:22.862Z,61.78
2023-02-08T19:28:53.294Z,62.13
2023-02-08T19:31:23.476Z,61.43
2023-02-08T19:34:00.875Z,62.41
2023-02-08T19:36:33.834Z,62.17
2023-02-08T19:39:04.749Z,62.28
2023-02-08T19:41:36.965Z,62.64
2023-02-08T19:44:07.710Z,63.18
2023-02-08T19:46:39.197Z,62.61
2023-02-08T19:49:08.321Z,63.54
2023-02-08T19:51:37.529Z,63.59
2023-02-08T19:54:09.782Z,63.85
2023-02-08T19:56:38.575Z,63.19
2023-02-08T19:59:09.604Z,63.87
2023-02-08T20:01:38.036Z,63.61
2023-02-08T20:04:07.319Z,63.14
2023-02-08T20:06:39.189Z,63.08
2023-02-08T20:09:08.883Z,62.42
2023-02-08T20:11:51.248Z,63.52
2023-02-08T20:14:26.333Z,63.46
2023-02-08T20:16:55.085Z,63.88
2023-02-08T20:19:24.291Z,64.40
2023-02-08T20:21:55.466Z,65.22
2023-02-08T20:24:24.742Z,65.09
2023-02-08T20:26:54.049Z,64.26
2023-02-08T20:29:23.510Z,64.22
2023-02-08T20:31:56.077Z,64.45
2023-02-08T20:34:25.269Z,64.67
2023-02-08T20:37:06.913Z,64.52
2023-02-08T20:39:38.085Z,64.16
2023-02-08T20:42:06.554Z,64.61
2023-02-08T20:44:35.592Z,64.86
2023-02-08T20:47:04.341Z,64.40
2023-02-08T20:49:36.583Z,64.63
2023-02-08T20:52:05.811Z,65.13
2023-02-08T20:54:37.565Z,65.60
2023-02-08T20:57:07.619Z,65.76
2023-02-08T20:59:36.042Z,66.28
2023-02-08T21:02:05.752Z,65.71
2023-02-08T21:04:35.589Z,65.83
2023-02-08T21:07:04.721Z,65.49
2023-02-08T21:09:33.925Z,65.59
2023-02-08T21:12:03.247Z,65.95
2023-02-08T21:14:33.140Z,65.59
2023-02-08T21:17:02.539Z,65.29
2023-02-08T21:19:31.820Z,65.31
2023-02-08T21:22:01.806Z,65.65
2023-02-08T21:24:31.305Z,64.87
2023-02-08T21:27:01.277Z,65.09
2023-02-08T21:29:32.981Z,64.55
2023-02-08T21:32:02.958Z,65.13
2023-02-08T21:34:32.724Z,65.34
2023-02-08T21:37:02.121Z,65.33
2023-02-08T21:39:31.704Z,65.37
2023-02-08T21:42:03.186Z,65.61
2023-02-08T21:44:36.374Z,64.88
2023-02-08T21:47:05.847Z,65.37
2023-02-08T21:49:54.377Z,65.39
2023-02-08T21:52:43.753Z,65.96
2023-02-08T21:55:12.946Z,66.28
2023-02-08T21:57:42.010Z,65.14
2023-02-08T22:00:11.670Z,65.02
2023-02-08T22:02:45.197Z,65.23
2023-02-08T22:05:34.538Z,65.26
2023-02-08T22:08:04.189Z,65.09
2023-02-08T22:10:33.460Z,65.47
2023-02-08T22:13:02.159Z,65.60
2023-02-08T22:15:31.814Z,65.36
2023-02-08T22:18:02.566Z,65.22
2023-02-08T22:20:32.273Z,65.97
2023-02-08T22:23:00.738Z,65.74
2023-02-08T22:25:29.896Z,65.49
2023-02-08T22:27:59.835Z,66.12
2023-02-08T22:30:28.855Z,66.94
2023-02-08T22:32:58.063Z,66.58
2023-02-08T22:35:27.115Z,66.70
2023-02-08T22:37:56.617Z,66.15
2023-02-08T22:40:25.789Z,66.64
2023-02-08T22:42:55.221Z,66.63
2023-02-08T22:45:24.305Z,66.15
2023-02-08T22:47:54.429Z,66.31
2023-02-08T22:50:23.548Z,66.77
2023-02-08T22:52:53.124Z,66.62
2023-02-08T22:55:21.542Z,66.74
2023-02-08T22:57:51.026Z,66.34
2023-02-08T23:00:20.287Z,66.39
2023-02-08T23:02:49.825Z,66.38
2023-02-08T23:05:19.040Z,66.47
2023-02-08T23:07:48.466Z,65.77
2023-02-08T23:10:17.662Z,65.94
2023-02-08T23:12:47.021Z,65.40
2023-02-08T23:15:15.462Z,65.18
2023-02-08T23:17:46.189Z,65.88
2023-02-08T23:20:15.328Z,65.64
2023-02-08T23:22:44.809Z,65.58
2023-02-08T23:25:15.914Z,66.11
2023-02-08T23:27:46.946Z,66.23
2023-02-08T23:30:16.529Z,66.69
2023-02-08T23:32:46.114Z,66.07
2023-02-08T23:35:15.867Z,66.30
2023-02-08T23:37:44.205Z,66.05
2023-02-08T23:40:13.904Z,66.46
2023-02-08T23:42:43.094Z,66.70
2023-02-08T23:45:12.300Z,66.33
2023-02-08T23:47:41.509Z,66.51
2023-02-08T23:50:11.248Z,66.48
2023-02-08T23:52:40.505Z,66.47
2023-02-08T23:55:10.110Z,66.12
2023-02-08T23:57:39.816Z,65.86
